Time;durP1;ratioP1;P1;durP2;ratioP2;P2;SDS_P1;SDS_P2;PMS_P1;PMS_P2;Temp;Humidity;BMP_temperature;BMP_pressure;BME280_temperature;BME280_humidity;BME280_pressure;Samples;Min_cycle;Max_cycle;Signal;HPM_P1;HPM_P2
2021/10/18 00:00:59;;;;;;;;;20.00;16.25;;;;;16.66;100.00;101610.47;5065931;27;45315;-85
2021/10/18 00:03:25;;;;;;;;;24.00;18.50;;;;;16.62;100.00;101609.00;5069789;28;45295;-85
2021/10/18 00:05:50;;;;;;;;;29.25;22.00;;;;;16.61;100.00;101618.81;5071587;28;46110;-85
2021/10/18 00:08:16;;;;;;;;;23.50;22.25;;;;;16.61;100.00;101615.28;5081345;28;45287;-85
2021/10/18 00:10:41;;;;;;;;;22.75;22.00;;;;;16.59;100.00;101609.22;5082572;27;45262;-86
2021/10/18 00:13:07;;;;;;;;;22.75;21.75;;;;;16.59;100.00;101612.72;5074379;28;45373;-86
2021/10/18 00:15:35;;;;;;;;;22.25;16.75;;;;;16.47;100.00;101613.72;5079287;27;45496;-86
2021/10/18 00:18:00;;;;;;;;;23.00;20.25;;;;;16.36;100.00;101611.88;5078131;28;45388;-86
2021/10/18 00:20:26;;;;;;;;;24.75;21.50;;;;;16.48;100.00;101614.56;5067369;28;45413;-86
2021/10/18 00:22:52;;;;;;;;;27.00;22.75;;;;;16.46;100.00;101614.69;5075200;28;45504;-86
2021/10/18 00:25:19;;;;;;;;;28.25;20.75;;;;;16.48;100.00;101619.88;5076898;27;45175;-86
2021/10/18 00:27:44;;;;;;;;;28.00;23.50;;;;;16.43;100.00;101620.22;5082988;27;45430;-86
2021/10/18 00:30:11;;;;;;;;;26.50;20.50;;;;;16.38;100.00;101609.09;5083265;28;45192;-86
2021/10/18 00:32:37;;;;;;;;;19.50;17.50;;;;;16.38;100.00;101614.44;5077863;27;45206;-86
2021/10/18 00:35:03;;;;;;;;;24.25;18.00;;;;;16.31;100.00;101606.03;5061417;28;46003;-85
2021/10/18 00:37:28;;;;;;;;;19.75;18.50;;;;;16.34;100.00;101610.28;5061618;28;45672;-86
2021/10/18 00:39:54;;;;;;;;;23.75;18.75;;;;;16.35;100.00;101607.50;5076661;28;45462;-86
2021/10/18 00:42:20;;;;;;;;;21.25;18.50;;;;;16.31;100.00;101610.53;5069479;28;45458;-86
2021/10/18 00:44:45;;;;;;;;;26.50;19.00;;;;;16.32;100.00;101605.06;5064055;28;45477;-86
2021/10/18 00:47:15;;;;;;;;;21.75;20.00;;;;;16.31;100.00;101608.69;5080996;27;45420;-85
2021/10/18 00:49:41;;;;;;;;;22.75;20.00;;;;;16.24;100.00;101609.31;5068349;28;45408;-86
2021/10/18 00:52:06;;;;;;;;;28.50;21.50;;;;;16.17;100.00;101613.41;5076402;28;45496;-85
2021/10/18 00:54:32;;;;;;;;;16.75;16.75;;;;;16.12;100.00;101618.22;5061624;28;46286;-85
2021/10/18 00:56:58;;;;;;;;;18.50;16.75;;;;;16.16;100.00;101625.03;5062603;28;45418;-85
2021/10/18 00:59:23;;;;;;;;;23.25;21.25;;;;;16.15;100.00;101632.19;5068572;27;45613;-85
2021/10/18 01:01:51;;;;;;;;;26.25;22.25;;;;;16.18;100.00;101626.63;5074610;28;45554;-85
2021/10/18 01:04:17;;;;;;;;;21.25;19.50;;;;;16.11;100.00;101627.22;5067630;27;45662;-85
2021/10/18 01:06:44;;;;;;;;;22.00;20.00;;;;;16.08;100.00;101630.97;5065533;28;45592;-86
2021/10/18 01:09:09;;;;;;;;;21.75;20.25;;;;;15.97;100.00;101628.25;5063379;28;45307;-85
2021/10/18 01:11:34;;;;;;;;;19.75;14.00;;;;;15.90;100.00;101619.88;5069610;28;45425;-85
2021/10/18 01:14:00;;;;;;;;;31.50;21.75;;;;;15.94;100.00;101625.81;5082755;27;45304;-85
2021/10/18 01:16:25;;;;;;;;;28.75;22.25;;;;;16.03;100.00;101622.44;5078745;28;45267;-86
2021/10/18 01:18:50;;;;;;;;;29.00;22.25;;;;;15.97;100.00;101629.09;5077215;28;45341;-85
2021/10/18 01:21:16;;;;;;;;;23.50;21.50;;;;;15.97;100.00;101623.78;5077776;28;45140;-86
2021/10/18 01:23:41;;;;;;;;;23.75;20.00;;;;;15.81;100.00;101631.25;5080957;28;45507;-85
2021/10/18 01:26:07;;;;;;;;;24.50;19.75;;;;;15.86;100.00;101630.88;5077011;28;45571;-86
2021/10/18 01:28:32;;;;;;;;;26.25;21.00;;;;;15.87;100.00;101622.78;5084068;28;45272;-86
2021/10/18 01:30:58;;;;;;;;;22.50;19.25;;;;;15.92;100.00;101625.09;5086903;27;45396;-86
2021/10/18 01:33:23;;;;;;;;;25.50;21.50;;;;;15.89;100.00;101626.19;5080135;28;46276;-86
2021/10/18 01:35:48;;;;;;;;;23.25;18.50;;;;;15.89;100.00;101620.00;5095235;27;44732;-86
2021/10/18 01:38:14;;;;;;;;;24.50;23.00;;;;;15.74;100.00;101621.16;5079013;28;45354;-85
2021/10/18 01:40:39;;;;;;;;;30.25;24.00;;;;;15.77;100.00;101621.78;5073838;28;45379;-86
2021/10/18 01:43:05;;;;;;;;;27.25;21.50;;;;;15.76;100.00;101619.22;5073781;28;46118;-86
2021/10/18 01:45:30;;;;;;;;;31.25;26.25;;;;;15.75;100.00;101620.22;5080062;28;45924;-86
2021/10/18 01:47:56;;;;;;;;;27.75;23.25;;;;;15.83;100.00;101617.81;5080278;27;45400;-85
2021/10/18 01:50:26;;;;;;;;;28.25;21.50;;;;;15.83;100.00;101604.50;5062751;28;45462;-85
2021/10/18 01:52:53;;;;;;;;;18.75;18.50;;;;;15.84;100.00;101608.88;5078606;28;46612;-85
2021/10/18 01:55:19;;;;;;;;;32.50;22.25;;;;;15.79;100.00;101605.69;5081251;27;45724;-85
2021/10/18 01:57:46;;;;;;;;;32.00;23.00;;;;;15.79;100.00;101603.03;5063403;27;45311;-86
2021/10/18 02:00:12;;;;;;;;;19.00;19.00;;;;;15.77;100.00;101605.78;5074688;27;45561;-86
2021/10/18 02:02:38;;;;;;;;;27.25;21.00;;;;;15.75;100.00;101593.59;5061404;28;47400;-85
2021/10/18 02:05:05;;;;;;;;;25.75;21.50;;;;;15.73;100.00;101595.50;5060181;28;45566;-85
2021/10/18 02:07:30;;;;;;;;;30.50;23.50;;;;;15.68;100.00;101602.00;5061212;28;45263;-85
2021/10/18 02:09:55;;;;;;;;;30.00;22.00;;;;;15.66;100.00;101598.59;5078492;28;46039;-86
2021/10/18 02:12:22;;;;;;;;;28.25;22.00;;;;;15.59;100.00;101604.50;5080124;27;45495;-85
2021/10/18 02:14:48;;;;;;;;;28.75;22.25;;;;;15.57;100.00;101601.97;5084345;27;45460;-85
2021/10/18 02:17:13;;;;;;;;;26.50;23.25;;;;;15.63;100.00;101604.19;5079014;27;45589;-85
2021/10/18 02:19:39;;;;;;;;;24.00;19.75;;;;;15.60;100.00;101591.09;5073248;27;45366;-86
2021/10/18 02:22:04;;;;;;;;;33.25;21.75;;;;;15.53;100.00;101600.47;5065323;28;45464;-85
2021/10/18 02:24:30;;;;;;;;;29.25;26.75;;;;;15.42;100.00;101613.72;5061573;28;45443;-86
2021/10/18 02:26:55;;;;;;;;;28.00;24.00;;;;;15.34;100.00;101605.47;5060727;28;45812;-85
2021/10/18 02:29:20;;;;;;;;;28.50;21.50;;;;;15.32;100.00;101602.06;5059271;28;45849;-85
2021/10/18 02:31:46;;;;;;;;;30.50;24.25;;;;;15.29;100.00;101600.50;5061717;28;46402;-85
2021/10/18 02:34:11;;;;;;;;;29.00;25.00;;;;;15.24;100.00;101601.78;5058958;28;45809;-85
2021/10/18 02:36:37;;;;;;;;;29.50;24.00;;;;;15.23;100.00;101594.75;5069909;28;45416;-85
2021/10/18 02:39:02;;;;;;;;;26.50;20.00;;;;;15.23;100.00;101594.75;5079470;28;45219;-85
2021/10/18 02:41:28;;;;;;;;;31.25;24.75;;;;;15.15;100.00;101589.16;5079799;27;45303;-85
2021/10/18 02:43:53;;;;;;;;;23.50;20.00;;;;;15.20;100.00;101590.53;5083345;27;45367;-85
2021/10/18 02:46:19;;;;;;;;;21.25;21.00;;;;;15.15;100.00;101590.00;5061364;28;45304;-85
2021/10/18 02:48:44;;;;;;;;;25.50;22.25;;;;;15.06;100.00;101587.16;5071626;28;45434;-85
2021/10/18 02:51:09;;;;;;;;;32.00;18.50;;;;;15.08;100.00;101595.88;5080122;27;46261;-85
2021/10/18 02:53:35;;;;;;;;;26.25;24.25;;;;;15.04;100.00;101576.63;5078818;28;45635;-85
2021/10/18 02:56:00;;;;;;;;;28.25;24.00;;;;;15.05;100.00;101585.44;5075072;27;45513;-85
2021/10/18 02:58:26;;;;;;;;;28.25;20.75;;;;;15.07;100.00;101575.56;5082196;27;45436;-86
2021/10/18 03:00:51;;;;;;;;;30.25;23.50;;;;;15.11;100.00;101575.25;5074955;27;46464;-86
2021/10/18 03:03:16;;;;;;;;;26.50;23.25;;;;;15.14;100.00;101572.31;5062239;28;46837;-85
2021/10/18 03:05:42;;;;;;;;;29.00;24.50;;;;;15.19;100.00;101575.53;5065405;28;45540;-86
2021/10/18 03:08:08;;;;;;;;;33.00;21.75;;;;;15.18;100.00;101567.66;5070631;27;45299;-85
2021/10/18 03:10:33;;;;;;;;;28.00;23.00;;;;;15.20;100.00;101571.06;5077833;28;45555;-85
2021/10/18 03:12:59;;;;;;;;;32.75;26.00;;;;;15.17;100.00;101563.28;5082380;28;45376;-86
2021/10/18 03:15:24;;;;;;;;;25.25;22.00;;;;;15.17;100.00;101557.97;5101511;27;45726;-86
2021/10/18 03:17:51;;;;;;;;;26.50;22.50;;;;;15.19;100.00;101556.91;5064153;28;45444;-86
2021/10/18 03:20:17;;;;;;;;;21.75;18.50;;;;;15.18;100.00;101564.97;5064677;28;45616;-87
2021/10/18 03:22:43;;;;;;;;;28.75;20.50;;;;;15.22;100.00;101561.13;5081432;27;45196;-87
2021/10/18 03:25:09;;;;;;;;;25.25;19.75;;;;;15.17;100.00;101557.97;5068484;28;45570;-86
2021/10/18 03:27:35;;;;;;;;;23.00;18.50;;;;;15.17;100.00;101573.94;5067652;28;45318;-87
2021/10/18 03:30:01;;;;;;;;;22.50;19.75;;;;;15.24;100.00;101569.84;5071485;28;47615;-84
2021/10/18 03:32:26;;;;;;;;;24.50;19.25;;;;;15.28;100.00;101579.31;5066444;27;45189;-84
2021/10/18 03:34:52;;;;;;;;;33.75;24.75;;;;;15.28;100.00;101582.81;5062856;27;45256;-84
2021/10/18 03:37:17;;;;;;;;;26.50;26.00;;;;;15.17;100.00;101571.25;5069863;27;45576;-84
2021/10/18 03:39:42;;;;;;;;;29.00;21.00;;;;;15.17;100.00;101585.41;5074899;28;46868;-84
2021/10/18 03:42:08;;;;;;;;;31.25;22.25;;;;;15.14;100.00;101577.66;5072267;28;45394;-84
2021/10/18 03:44:33;;;;;;;;;29.25;23.25;;;;;15.11;100.00;101574.38;5080039;27;45365;-84
2021/10/18 03:46:59;;;;;;;;;28.25;22.00;;;;;15.13;100.00;101572.44;5084413;27;45298;-84
2021/10/18 03:49:25;;;;;;;;;27.00;21.25;;;;;15.18;100.00;101570.31;5086376;28;45433;-84
2021/10/18 03:51:50;;;;;;;;;26.00;21.00;;;;;15.05;100.00;101577.47;5083188;27;45507;-86
2021/10/18 03:54:15;;;;;;;;;31.25;22.25;;;;;15.10;100.00;101591.31;5081791;27;45306;-86
2021/10/18 03:56:41;;;;;;;;;26.25;20.25;;;;;15.09;100.00;101586.94;5078404;27;45401;-87
2021/10/18 03:59:06;;;;;;;;;29.50;24.50;;;;;15.07;100.00;101586.19;5063482;28;45440;-86
2021/10/18 04:01:32;;;;;;;;;35.75;27.25;;;;;15.05;100.00;101588.97;5077742;27;45449;-86
2021/10/18 04:03:57;;;;;;;;;26.25;21.25;;;;;15.08;100.00;101591.41;5082068;27;45275;-86
2021/10/18 04:06:23;;;;;;;;;26.75;20.00;;;;;15.07;100.00;101591.53;5075391;27;45544;-86
2021/10/18 04:08:49;;;;;;;;;27.25;25.50;;;;;15.08;100.00;101590.56;5070089;28;47284;-87
2021/10/18 04:11:14;;;;;;;;;27.75;24.00;;;;;15.08;100.00;101588.75;5078892;28;45639;-83
2021/10/18 04:13:40;;;;;;;;;30.25;22.75;;;;;15.10;100.00;101600.13;5080150;27;45351;-86
2021/10/18 04:16:05;;;;;;;;;24.75;19.25;;;;;15.15;100.00;101591.81;5068916;28;45560;-84
2021/10/18 04:18:31;;;;;;;;;26.50;21.50;;;;;14.98;100.00;101591.22;5062259;28;45302;-84
2021/10/18 04:20:56;;;;;;;;;26.75;24.00;;;;;14.98;100.00;101590.38;5073654;28;45263;-85
2021/10/18 04:23:22;;;;;;;;;29.00;22.75;;;;;15.01;100.00;101603.47;5062203;28;45210;-85
2021/10/18 04:25:47;;;;;;;;;29.00;24.50;;;;;15.00;100.00;101601.75;5072705;28;45414;-84
2021/10/18 04:28:13;;;;;;;;;30.00;21.75;;;;;15.14;100.00;101609.56;5071486;28;45694;-84
2021/10/18 04:30:38;;;;;;;;;35.25;22.00;;;;;15.05;100.00;101607.59;5080994;27;45776;-84
2021/10/18 04:33:04;;;;;;;;;26.50;20.75;;;;;15.10;100.00;101608.13;5082025;27;45389;-84
2021/10/18 04:35:29;;;;;;;;;26.00;23.50;;;;;15.02;100.00;101613.16;5080348;27;45422;-84
2021/10/18 04:37:55;;;;;;;;;26.25;23.75;;;;;15.05;100.00;101618.22;5076935;28;45535;-84
2021/10/18 04:40:20;;;;;;;;;27.75;19.00;;;;;15.06;100.00;101629.72;5080640;27;45467;-84
2021/10/18 04:42:45;;;;;;;;;30.75;21.50;;;;;14.96;100.00;101626.88;5063878;27;45486;-84
2021/10/18 04:45:11;;;;;;;;;22.75;19.75;;;;;15.06;100.00;101629.72;5075894;28;45432;-84
2021/10/18 04:47:43;;;;;;;;;25.25;23.25;;;;;14.99;100.00;101624.00;5061482;27;45389;-84
2021/10/18 04:50:09;;;;;;;;;32.50;22.75;;;;;14.98;100.00;101622.28;5068322;28;45543;-83
2021/10/18 04:52:35;;;;;;;;;30.25;23.50;;;;;14.93;100.00;101625.28;5080368;27;45421;-83
2021/10/18 04:55:00;;;;;;;;;26.50;22.50;;;;;14.90;100.00;101624.66;5077679;28;45303;-83
2021/10/18 04:57:25;;;;;;;;;24.25;18.25;;;;;14.95;100.00;101636.66;5071313;28;47070;-83
2021/10/18 04:59:51;;;;;;;;;31.50;23.25;;;;;14.93;100.00;101635.09;5070563;28;45496;-84
2021/10/18 05:02:16;;;;;;;;;29.25;20.75;;;;;14.99;100.00;101637.28;5072666;27;45613;-83
2021/10/18 05:04:41;;;;;;;;;29.25;23.75;;;;;15.03;100.00;101635.25;5065207;28;45421;-83
2021/10/18 05:07:07;;;;;;;;;33.00;23.75;;;;;15.00;100.00;101638.16;5077191;28;47591;-83
2021/10/18 05:09:33;;;;;;;;;26.50;23.75;;;;;15.07;100.00;101645.56;5082815;27;45727;-84
2021/10/18 05:11:59;;;;;;;;;25.00;22.50;;;;;15.06;100.00;101645.69;5072067;28;45276;-84
2021/10/18 05:14:24;;;;;;;;;25.75;19.50;;;;;14.93;100.00;101643.06;5094353;27;45480;-84
2021/10/18 05:16:52;;;;;;;;;28.50;24.75;;;;;14.97;100.00;101639.22;5060976;28;45333;-84
2021/10/18 05:19:18;;;;;;;;;28.50;24.00;;;;;14.91;100.00;101655.63;5065346;28;45824;-84
2021/10/18 05:21:43;;;;;;;;;37.75;29.50;;;;;14.92;100.00;101644.88;5077274;27;45468;-84
2021/10/18 05:24:08;;;;;;;;;28.75;23.25;;;;;14.80;100.00;101650.19;5066916;28;45455;-84
2021/10/18 05:26:34;;;;;;;;;31.00;23.75;;;;;14.73;100.00;101648.94;5068301;27;45361;-84
2021/10/18 05:28:59;;;;;;;;;27.50;24.00;;;;;14.78;100.00;101644.97;5071168;28;45395;-85
2021/10/18 05:31:24;;;;;;;;;27.25;25.00;;;;;14.78;100.00;101642.31;5074119;28;45789;-85
2021/10/18 05:33:50;;;;;;;;;24.25;20.75;;;;;14.73;100.00;101641.81;5070525;27;45261;-85
2021/10/18 05:36:15;;;;;;;;;33.00;26.75;;;;;14.74;100.00;101651.50;5059776;28;47269;-85
2021/10/18 05:38:40;;;;;;;;;33.75;24.75;;;;;14.67;100.00;101652.00;5067342;27;45449;-84
2021/10/18 05:41:07;;;;;;;;;30.50;25.00;;;;;14.75;100.00;101647.84;5071571;28;45442;-84
2021/10/18 05:43:33;;;;;;;;;27.00;24.00;;;;;14.71;100.00;101649.03;5078481;28;45801;-85
2021/10/18 05:45:58;;;;;;;;;32.50;22.25;;;;;14.74;100.00;101648.84;5062544;28;46008;-85
2021/10/18 05:48:23;;;;;;;;;31.75;21.00;;;;;14.69;100.00;101647.44;5069397;28;45251;-86
2021/10/18 05:50:49;;;;;;;;;24.00;21.00;;;;;14.65;100.00;101651.28;5067868;28;45310;-85
2021/10/18 05:53:14;;;;;;;;;30.25;25.00;;;;;14.67;100.00;101649.34;5064856;27;45330;-84
2021/10/18 05:55:40;;;;;;;;;27.25;22.75;;;;;14.61;100.00;101640.00;5069849;28;46258;-84
2021/10/18 05:58:08;;;;;;;;;32.00;25.00;;;;;14.59;100.00;101648.09;5076542;28;45421;-85
2021/10/18 06:00:39;;;;;;;;;34.75;24.75;;;;;14.57;100.00;101643.81;5090032;27;45524;-86
2021/10/18 06:03:05;;;;;;;;;26.00;22.25;;;;;14.68;100.00;101646.59;5076446;28;45472;-84
2021/10/18 06:05:31;;;;;;;;;28.75;24.75;;;;;14.70;100.00;101651.81;5090132;27;47182;-84
2021/10/18 06:08:07;;;;;;;;;26.75;23.75;;;;;14.71;100.00;101662.34;5070171;28;45433;-84
2021/10/18 06:10:34;;;;;;;;;28.25;24.75;;;;;14.63;100.00;101659.38;5087444;28;45303;-83
2021/10/18 06:12:59;;;;;;;;;26.25;21.00;;;;;14.63;100.00;101669.16;5084678;28;45299;-86
2021/10/18 06:15:25;;;;;;;;;30.50;22.00;;;;;14.58;100.00;101667.66;5080091;27;46674;-84
2021/10/18 06:17:50;;;;;;;;;28.75;21.50;;;;;14.64;100.00;101674.38;5089111;28;45255;-88
2021/10/18 06:20:16;;;;;;;;;31.25;23.50;;;;;14.63;100.00;101663.84;5067348;28;45406;-84
2021/10/18 06:22:42;;;;;;;;;26.75;18.75;;;;;14.68;100.00;101677.63;5066360;28;45404;-85
2021/10/18 06:25:08;;;;;;;;;27.75;19.25;;;;;14.64;100.00;101665.53;5072608;28;48187;-83
2021/10/18 06:27:33;;;;;;;;;25.00;20.50;;;;;14.68;100.00;101674.97;5068652;27;45342;-83
2021/10/18 06:29:59;;;;;;;;;23.00;22.50;;;;;14.63;100.00;101664.69;5072771;28;45802;-83
2021/10/18 06:32:24;;;;;;;;;30.75;24.00;;;;;14.65;100.00;101673.41;5071316;27;45340;-83
2021/10/18 06:34:49;;;;;;;;;27.00;22.50;;;;;14.71;100.00;101662.34;5058705;28;47165;-86
2021/10/18 06:37:15;;;;;;;;;24.75;20.25;;;;;14.77;100.00;101669.88;5073970;28;45324;-83
2021/10/18 06:39:40;;;;;;;;;26.00;21.25;;;;;14.85;100.00;101669.31;5063518;28;45516;-84
2021/10/18 06:42:06;;;;;;;;;22.50;21.50;;;;;14.98;100.00;101667.50;5067051;27;46354;-84
2021/10/18 06:44:31;;;;;;;;;31.25;21.25;;;;;15.15;100.00;101677.78;5070353;28;45370;-84
2021/10/18 06:46:57;;;;;;;;;25.75;22.25;;;;;15.13;100.00;101677.03;5057801;28;45366;-84
2021/10/18 06:49:23;;;;;;;;;29.75;22.50;;;;;15.18;100.00;101674.06;5064418;28;45384;-84
2021/10/18 06:51:53;;;;;;;;;29.75;22.50;;;;;15.20;100.00;101688.13;5061740;28;45410;-85
2021/10/18 06:54:20;;;;;;;;;22.00;19.00;;;;;15.12;100.00;101679.81;5063701;28;45403;-86
2021/10/18 06:56:45;;;;;;;;;31.00;23.00;;;;;15.15;100.00;101677.78;5061886;28;45242;-84
2021/10/18 06:59:11;;;;;;;;;31.25;23.25;;;;;15.22;100.00;101678.19;5065824;28;45647;-86
2021/10/18 07:01:38;;;;;;;;;30.50;24.25;;;;;15.18;100.00;101690.03;5072253;28;45504;-85
2021/10/18 07:04:04;;;;;;;;;26.50;20.50;;;;;15.19;100.00;101686.41;5072267;28;45489;-85
2021/10/18 07:06:29;;;;;;;;;25.25;19.50;;;;;15.22;100.00;101687.03;5074254;28;45552;-87
2021/10/18 07:08:55;;;;;;;;;28.50;25.00;;;;;15.23;100.00;101693.19;5069592;28;45217;-84
2021/10/18 07:11:20;;;;;;;;;25.75;19.00;;;;;15.33;100.00;101686.25;5067906;27;45252;-85
2021/10/18 07:13:45;;;;;;;;;20.50;19.00;;;;;15.34;100.00;101695.94;5068010;27;45410;-83
2021/10/18 07:16:11;;;;;;;;;24.50;21.50;;;;;15.35;100.00;101689.66;5062124;28;45444;-85
2021/10/18 07:18:36;;;;;;;;;24.00;21.25;;;;;15.46;100.00;101695.06;5073151;27;45457;-83
2021/10/18 07:21:01;;;;;;;;;29.25;19.25;;;;;15.43;100.00;101694.44;5071688;28;46090;-84
2021/10/18 07:23:28;;;;;;;;;25.25;21.75;;;;;15.36;100.00;101699.34;5073263;27;46244;-85
2021/10/18 07:25:54;;;;;;;;;26.00;17.75;;;;;15.40;100.00;101699.97;5074187;28;45568;-84
2021/10/18 07:28:19;;;;;;;;;29.75;22.75;;;;;15.42;100.00;101692.72;5066962;28;45219;-84
2021/10/18 07:30:46;;;;;;;;;28.50;21.75;;;;;15.53;100.00;101696.31;5070022;28;45485;-86
2021/10/18 07:33:11;;;;;;;;;32.50;24.75;;;;;15.62;100.00;101697.47;5071037;28;47167;-84
2021/10/18 07:35:37;;;;;;;;;23.25;22.75;;;;;15.75;100.00;101692.94;5070963;27;44756;-88
2021/10/18 07:38:04;;;;;;;;;25.75;17.25;;;;;16.11;100.00;101688.50;5074926;28;45416;-86
2021/10/18 07:40:30;;;;;;;;;22.75;20.75;;;;;16.48;100.00;101689.22;5071777;28;46757;-86
2021/10/18 07:42:56;;;;;;;;;26.25;22.75;;;;;17.18;100.00;101688.06;5069451;28;47583;-84
2021/10/18 07:45:22;;;;;;;;;34.00;24.50;;;;;18.20;100.00;101693.00;5076755;28;45842;-84
2021/10/18 07:47:48;;;;;;;;;28.25;21.75;;;;;18.97;100.00;101682.72;5079447;28;45464;-84
2021/10/18 07:50:14;;;;;;;;;34.00;25.25;;;;;19.68;100.00;101667.41;5072377;28;45276;-84
2021/10/18 07:52:42;;;;;;;;;25.75;21.00;;;;;20.17;100.00;101669.13;5073265;28;47170;-84
2021/10/18 07:55:17;;;;;;;;;23.25;23.25;;;;;20.49;100.00;101681.34;5076648;28;45496;-84
2021/10/18 07:57:45;;;;;;;;;24.00;23.25;;;;;20.10;100.00;101681.41;5066407;28;45407;-84
2021/10/18 08:00:12;;;;;;;;;24.00;22.00;;;;;19.79;100.00;101678.00;5077419;27;45365;-84
2021/10/18 08:02:38;;;;;;;;;27.25;21.50;;;;;19.49;100.00;101686.16;5076258;28;48199;-84
2021/10/18 08:05:04;;;;;;;;;26.25;21.75;;;;;19.25;100.00;101688.31;5076728;28;45406;-84
2021/10/18 08:07:35;;;;;;;;;30.75;25.00;;;;;19.32;100.00;101693.00;5071076;28;46393;-84
2021/10/18 08:10:04;;;;;;;;;24.25;21.25;;;;;19.47;100.00;101703.34;5075947;28;45412;-84
2021/10/18 08:12:29;;;;;;;;;27.50;25.00;;;;;19.61;100.00;101700.28;5069156;27;46116;-84
2021/10/18 08:14:54;;;;;;;;;31.00;24.00;;;;;20.03;100.00;101693.66;5074821;27;45206;-84
2021/10/18 08:17:20;;;;;;;;;20.50;15.50;;;;;20.50;100.00;101694.63;5076369;27;45184;-83
2021/10/18 08:19:45;;;;;;;;;24.50;20.50;;;;;21.03;100.00;101693.22;5077546;28;45522;-84
2021/10/18 08:22:10;;;;;;;;;35.75;26.25;;;;;21.69;100.00;101698.34;5077661;28;48398;-84
2021/10/18 08:24:36;;;;;;;;;28.75;26.50;;;;;22.01;100.00;101704.94;5079019;28;45368;-84
2021/10/18 08:27:01;;;;;;;;;31.25;26.75;;;;;22.14;100.00;101715.28;5076357;27;45232;-84
2021/10/18 08:29:27;;;;;;;;;25.75;22.75;;;;;21.87;100.00;101720.72;5075757;28;46300;-85
2021/10/18 08:31:52;;;;;;;;;26.50;24.50;;;;;21.72;100.00;101715.03;5073885;28;45273;-84
2021/10/18 08:34:18;;;;;;;;;28.00;21.00;;;;;21.59;100.00;101714.53;5074010;28;45617;-85
2021/10/18 08:36:43;;;;;;;;;25.75;23.25;;;;;21.51;100.00;101709.94;5074749;28;45992;-85
2021/10/18 08:42:00;;;;;;;;;28.00;23.50;;;;;22.09;100.00;101714.06;5071395;28;45906;-84
2021/10/18 08:44:27;;;;;;;;;32.00;23.75;;;;;22.48;97.83;101701.09;5073718;28;45422;-85
2021/10/18 08:46:53;;;;;;;;;25.25;22.50;;;;;22.67;95.29;101685.56;5070793;28;45524;-85
2021/10/18 08:49:21;;;;;;;;;30.00;25.50;;;;;22.70;95.00;101681.72;5069385;28;45397;-85
2021/10/18 08:51:47;;;;;;;;;28.50;25.00;;;;;22.72;94.65;101680.56;5071448;27;45423;-85
2021/10/18 08:54:12;;;;;;;;;29.50;25.50;;;;;22.89;97.19;101689.59;5075564;28;45416;-85
2021/10/18 08:56:38;;;;;;;;;27.75;27.25;;;;;22.86;92.41;101686.38;5073804;27;45424;-85
2021/10/18 08:59:04;;;;;;;;;32.50;26.25;;;;;22.39;92.79;101681.38;5073495;28;45230;-86
2021/10/18 09:01:47;;;;;;;;;29.00;23.75;;;;;21.76;96.39;101689.53;5072870;27;45409;-85
2021/10/18 09:04:16;;;;;;;;;25.50;22.75;;;;;21.49;98.92;101685.03;5073012;28;45641;-84
2021/10/18 09:06:47;;;;;;;;;32.25;27.00;;;;;21.24;100.00;101686.63;5073387;28;45180;-85
2021/10/18 09:09:13;;;;;;;;;30.00;27.25;;;;;21.32;100.00;101685.84;5074795;28;45236;-84
2021/10/18 09:11:40;;;;;;;;;32.75;28.75;;;;;21.55;100.00;101697.03;5074520;28;45544;-85
2021/10/18 09:14:06;;;;;;;;;32.50;29.25;;;;;21.71;100.00;101683.78;5073538;28;45272;-85
2021/10/18 09:16:36;;;;;;;;;29.25;25.25;;;;;21.79;100.00;101674.94;5069422;28;45496;-86
2021/10/18 09:19:06;;;;;;;;;28.75;25.25;;;;;21.62;100.00;101682.00;5069188;28;45437;-85
2021/10/18 09:21:36;;;;;;;;;33.50;30.00;;;;;21.33;100.00;101676.81;5072783;27;46056;-85
2021/10/18 09:24:02;;;;;;;;;33.50;29.25;;;;;21.09;100.00;101666.59;5070173;28;45650;-85
2021/10/18 09:26:31;;;;;;;;;32.50;30.00;;;;;21.00;100.00;101674.69;5075791;27;46342;-85
2021/10/18 09:29:12;;;;;;;;;28.75;27.50;;;;;20.84;100.00;101676.19;5077323;28;45514;-85
2021/10/18 09:31:40;;;;;;;;;31.50;26.00;;;;;20.61;100.00;101669.47;5074193;27;45534;-84
2021/10/18 09:34:11;;;;;;;;;35.50;27.25;;;;;20.45;100.00;101677.28;5077772;28;45877;-84
2021/10/18 09:36:37;;;;;;;;;28.00;26.50;;;;;20.28;100.00;101669.94;5075860;28;45459;-84
2021/10/18 09:39:29;;;;;;;;;30.50;22.50;;;;;20.23;100.00;101680.25;5074376;28;45556;-84
2021/10/18 09:42:16;;;;;;;;;28.00;26.00;;;;;20.27;100.00;101676.31;5064827;28;46073;-84
2021/10/18 09:44:52;;;;;;;;;32.25;25.50;;;;;20.09;100.00;101677.03;5077706;27;45541;-84
2021/10/18 10:53:40;;;;;;;;;31.25;27.25;;;;;22.37;100.00;101684.22;5060548;28;45506;-82
2021/10/18 10:56:33;;;;;;;;;38.75;29.25;;;;;22.72;100.00;101677.88;5077148;28;45288;-83
2021/10/18 10:59:17;;;;;;;;;35.00;24.75;;;;;22.84;100.00;101666.84;5078800;28;45571;-83
2021/10/18 11:01:45;;;;;;;;;29.25;26.25;;;;;23.22;100.00;101657.44;5079697;27;45423;-83
2021/10/18 11:04:28;;;;;;;;;36.75;30.00;;;;;23.60;100.00;101658.69;5078886;27;45398;-83
2021/10/18 11:06:54;;;;;;;;;29.50;26.00;;;;;23.78;100.00;101646.75;5069657;28;45481;-83
2021/10/18 11:09:41;;;;;;;;;33.25;28.50;;;;;23.61;100.00;101645.06;5059736;28;45272;-83
2021/10/18 11:12:09;;;;;;;;;27.00;23.00;;;;;23.63;100.00;101644.91;5079351;28;46208;-82
2021/10/18 11:14:35;;;;;;;;;30.25;29.00;;;;;23.70;100.00;101648.59;5081017;27;45861;-83
2021/10/18 11:17:00;;;;;;;;;33.00;29.00;;;;;23.71;100.00;101639.50;5076658;28;45229;-83
2021/10/18 11:19:26;;;;;;;;;33.00;27.25;;;;;23.87;100.00;101647.59;5082581;28;47204;-83
2021/10/18 11:21:57;;;;;;;;;31.25;25.00;;;;;23.99;100.00;101643.56;5068567;28;47311;-84
2021/10/18 11:24:23;;;;;;;;;32.50;25.50;;;;;24.03;100.00;101631.44;5066997;27;45433;-83
2021/10/18 11:26:54;;;;;;;;;24.00;23.25;;;;;24.16;100.00;101637.16;5072333;28;45218;-84
2021/10/18 11:29:30;;;;;;;;;37.00;29.00;;;;;24.19;100.00;101650.31;5080031;28;45741;-84
2021/10/18 11:32:06;;;;;;;;;43.50;31.75;;;;;24.23;100.00;101646.28;5077402;27;45556;-83
2021/10/18 11:34:32;;;;;;;;;33.00;28.50;;;;;24.15;100.00;101638.16;5064019;28;45455;-82
2021/10/18 11:36:58;;;;;;;;;27.75;27.75;;;;;24.09;100.00;101627.22;5078000;28;45456;-85
2021/10/18 11:39:26;;;;;;;;;28.50;24.75;;;;;23.93;100.00;101636.16;5068298;27;45600;-84
2021/10/18 11:42:05;;;;;;;;;32.00;26.75;;;;;23.78;100.00;101635.13;5062685;28;45224;-86
2021/10/18 11:44:54;;;;;;;;;25.75;21.25;;;;;23.73;100.00;101632.09;5062710;28;45607;-86
2021/10/18 11:47:35;;;;;;;;;13.75;13.75;;;;;23.43;100.00;101631.69;5064435;28;45495;-88
2021/10/18 11:50:37;;;;;;;;;26.25;24.00;;;;;23.26;100.00;101638.06;5082720;27;45832;-85
2021/10/18 11:53:17;;;;;;;;;27.50;19.25;;;;;23.21;100.00;101618.84;5080573;28;45952;-83
2021/10/18 11:55:49;;;;;;;;;24.50;21.25;;;;;23.30;100.00;101606.25;5067147;27;45396;-83
2021/10/18 11:58:22;;;;;;;;;22.50;19.00;;;;;23.35;100.00;101590.41;5067478;28;45583;-83
2021/10/18 12:01:02;;;;;;;;;27.25;20.50;;;;;23.94;100.00;101588.44;5082046;28;45524;-83
2021/10/18 12:03:29;;;;;;;;;33.00;24.00;;;;;23.62;100.00;101594.66;5082731;28;47201;-83
2021/10/18 12:05:57;;;;;;;;;27.75;21.00;;;;;23.66;100.00;101596.03;5078737;27;45547;-83
2021/10/18 12:08:28;;;;;;;;;24.00;20.75;;;;;23.78;100.00;101606.31;5077432;28;45467;-83
2021/10/18 12:10:53;;;;;;;;;29.25;23.75;;;;;23.85;100.00;101572.22;5071899;28;46100;-84